createdAt,value
2022-10-24T00:00:11.055Z,991.19
2022-10-24T00:01:10.967Z,991.17
2022-10-24T00:02:10.958Z,991.17
2022-10-24T00:03:11.025Z,991.17
2022-10-24T00:04:10.962Z,991.17
2022-10-24T00:05:10.925Z,991.12
2022-10-24T00:06:10.917Z,991.18
2022-10-24T00:07:11.015Z,991.23
2022-10-24T00:08:10.891Z,991.16
2022-10-24T00:09:10.898Z,991.13
2022-10-24T00:10:10.867Z,991.15
2022-10-24T00:11:10.878Z,991.08
2022-10-24T00:12:10.876Z,991.12
2022-10-24T00:13:10.831Z,991.14
2022-10-24T00:14:10.863Z,991.10
2022-10-24T00:15:10.811Z,991.06
2022-10-24T00:16:10.797Z,991.07
2022-10-24T00:17:11.053Z,991.07
2022-10-24T00:18:10.783Z,991.08
2022-10-24T00:19:10.762Z,991.10
2022-10-24T00:20:10.776Z,991.14
2022-10-24T00:21:10.744Z,991.11
2022-10-24T00:22:10.730Z,991.10
2022-10-24T00:23:10.719Z,991.08
2022-10-24T00:24:10.713Z,991.09
2022-10-24T00:25:10.722Z,991.00
2022-10-24T00:26:10.707Z,990.98
2022-10-24T00:27:10.678Z,990.95
2022-10-24T00:28:10.666Z,990.92
2022-10-24T00:29:10.658Z,990.92
2022-10-24T00:30:10.657Z,990.93
2022-10-24T00:31:10.651Z,990.86
2022-10-24T00:32:10.638Z,990.87
2022-10-24T00:33:10.605Z,990.91
2022-10-24T00:34:10.597Z,990.96
2022-10-24T00:35:10.590Z,990.92
2022-10-24T00:36:10.574Z,990.89
2022-10-24T00:37:10.630Z,990.83
2022-10-24T00:38:10.549Z,990.87
2022-10-24T00:39:10.540Z,990.87
2022-10-24T00:40:10.527Z,990.84
2022-10-24T00:41:10.539Z,990.90
2022-10-24T00:42:10.503Z,990.86
2022-10-24T00:43:10.494Z,990.88
2022-10-24T00:44:10.489Z,990.92
2022-10-24T00:45:10.473Z,990.91
2022-10-24T00:46:10.478Z,990.93
2022-10-24T00:47:10.498Z,990.91
2022-10-24T00:48:10.434Z,990.86
2022-10-24T00:49:10.425Z,990.87
2022-10-24T00:50:10.446Z,990.87
2022-10-24T00:51:10.400Z,990.88
2022-10-24T00:52:10.410Z,990.88
2022-10-24T00:53:10.375Z,990.88
2022-10-24T00:54:10.366Z,990.84
2022-10-24T00:55:10.354Z,990.84
2022-10-24T00:56:10.342Z,990.92
2022-10-24T00:57:10.482Z,990.91
2022-10-24T00:58:10.321Z,990.92
2022-10-24T00:59:10.307Z,990.90
2022-10-24T01:00:10.297Z,990.91
2022-10-24T01:01:10.426Z,990.91
2022-10-24T01:02:10.385Z,990.93
2022-10-24T01:03:10.271Z,990.89
2022-10-24T01:04:10.253Z,990.86
2022-10-24T01:05:10.240Z,990.81
2022-10-24T01:06:10.230Z,990.86
2022-10-24T01:07:10.239Z,990.90
2022-10-24T01:08:10.208Z,990.98
2022-10-24T01:09:10.194Z,991.02
2022-10-24T01:10:10.185Z,990.99
2022-10-24T01:11:10.197Z,991.00
2022-10-24T01:12:10.184Z,990.92
2022-10-24T01:13:10.232Z,990.92
2022-10-24T01:14:10.161Z,990.92
2022-10-24T01:15:10.126Z,990.88
2022-10-24T01:16:10.116Z,990.86
2022-10-24T01:17:10.105Z,990.93
2022-10-24T01:19:20.440Z,990.93
2022-10-24T01:20:20.399Z,990.89
2022-10-24T01:21:20.413Z,990.86
2022-10-24T01:22:20.401Z,990.86
2022-10-24T01:23:20.368Z,990.87
2022-10-24T01:24:20.321Z,990.85
2022-10-24T01:25:20.344Z,990.87
2022-10-24T01:26:20.319Z,990.89
2022-10-24T01:27:20.381Z,990.90
2022-10-24T01:28:20.335Z,990.93
2022-10-24T01:29:20.289Z,990.91
2022-10-24T01:30:20.280Z,990.95
2022-10-24T01:31:20.272Z,990.97
2022-10-24T01:32:20.254Z,990.97
2022-10-24T01:33:20.242Z,990.96
2022-10-24T01:34:20.209Z,990.95
2022-10-24T01:35:20.420Z,990.93
2022-10-24T01:36:20.244Z,990.93
2022-10-24T01:37:20.236Z,990.91
2022-10-24T01:38:20.185Z,990.84
2022-10-24T01:39:20.218Z,990.87
2022-10-24T01:40:20.175Z,990.85
2022-10-24T01:41:21.073Z,990.86
2022-10-24T01:42:20.142Z,990.81
2022-10-24T01:43:20.131Z,990.83
2022-10-24T01:44:20.166Z,990.81
2022-10-24T01:45:20.110Z,990.78
2022-10-24T01:46:20.110Z,990.77
2022-10-24T01:47:20.097Z,990.78
2022-10-24T01:48:20.096Z,990.78
2022-10-24T01:49:20.056Z,990.81
2022-10-24T01:50:20.059Z,990.79
2022-10-24T01:51:20.033Z,990.78
2022-10-24T01:52:20.066Z,990.77
2022-10-24T01:53:22.488Z,990.73
2022-10-24T01:54:19.999Z,990.76
2022-10-24T01:55:19.990Z,990.79
2022-10-24T01:56:19.984Z,990.84
2022-10-24T01:57:19.966Z,990.83
2022-10-24T01:58:19.959Z,990.81
2022-10-24T01:59:19.950Z,990.77
2022-10-24T02:00:19.919Z,990.79
2022-10-24T02:01:20.036Z,990.80
2022-10-24T02:02:19.887Z,990.81
2022-10-24T02:03:19.916Z,990.83
2022-10-24T02:04:19.889Z,990.81
2022-10-24T02:05:19.883Z,990.81
2022-10-24T02:06:19.871Z,990.83
2022-10-24T02:07:19.885Z,990.79
2022-10-24T02:08:19.837Z,990.76
2022-10-24T02:09:19.843Z,990.79
2022-10-24T02:10:19.824Z,990.76
2022-10-24T02:11:19.804Z,990.77
2022-10-24T02:12:19.801Z,990.79
2022-10-24T02:13:19.788Z,990.76
2022-10-24T02:14:19.777Z,990.80
2022-10-24T02:15:19.774Z,990.77
2022-10-24T02:16:19.758Z,990.76
2022-10-24T02:17:19.803Z,990.81
2022-10-24T02:18:19.765Z,990.77
2022-10-24T02:19:19.735Z,990.74
2022-10-24T02:20:19.752Z,990.77
2022-10-24T02:21:19.774Z,990.75
2022-10-24T02:22:19.677Z,990.75
2022-10-24T02:23:19.712Z,990.73
2022-10-24T02:24:19.658Z,990.69
2022-10-24T02:25:19.628Z,990.68
2022-10-24T02:26:19.674Z,990.68
2022-10-24T02:27:19.643Z,990.64
2022-10-24T02:28:19.622Z,990.59
2022-10-24T02:29:19.610Z,990.60
2022-10-24T02:30:19.608Z,990.52
2022-10-24T02:31:19.597Z,990.54
2022-10-24T02:32:19.546Z,990.52
2022-10-24T02:33:19.595Z,990.51
2022-10-24T02:34:19.642Z,990.49
2022-10-24T02:35:19.542Z,990.45
2022-10-24T02:36:19.552Z,990.45
2022-10-24T02:37:19.576Z,990.46
2022-10-24T02:38:19.509Z,990.44
2022-10-24T02:39:19.520Z,990.42
2022-10-24T02:40:19.491Z,990.38
2022-10-24T02:41:19.470Z,990.34
2022-10-24T02:42:19.575Z,990.28
2022-10-24T02:43:19.446Z,990.29
2022-10-24T02:44:19.433Z,990.25
2022-10-24T02:45:19.424Z,990.28
2022-10-24T02:46:19.481Z,990.20
2022-10-24T02:47:19.406Z,990.21
2022-10-24T02:48:19.364Z,990.16
2022-10-24T02:49:19.375Z,990.18
2022-10-24T02:50:19.374Z,990.18
2022-10-24T02:51:19.397Z,990.15
2022-10-24T02:52:19.363Z,990.17
2022-10-24T02:53:19.335Z,990.15
2022-10-24T02:54:19.346Z,990.13
2022-10-24T02:55:19.323Z,990.11
2022-10-24T02:56:19.516Z,990.10
2022-10-24T02:57:19.353Z,990.11
2022-10-24T02:58:19.276Z,990.08
2022-10-24T02:59:19.287Z,990.07
2022-10-24T03:00:19.252Z,990.08
2022-10-24T03:01:19.368Z,990.08
2022-10-24T03:02:19.432Z,990.05
2022-10-24T03:03:19.520Z,990.04
2022-10-24T03:04:19.224Z,990.01
2022-10-24T03:05:19.221Z,990.02
2022-10-24T03:06:19.179Z,989.98
2022-10-24T03:07:19.329Z,990.03
2022-10-24T03:08:19.179Z,990.00
2022-10-24T03:09:19.151Z,989.95
2022-10-24T03:10:19.160Z,989.95
2022-10-24T03:11:19.155Z,989.89
2022-10-24T03:12:19.173Z,989.88
2022-10-24T03:13:19.104Z,989.91
2022-10-24T03:14:19.097Z,989.95
2022-10-24T03:15:19.126Z,989.95
2022-10-24T03:16:19.049Z,989.96
2022-10-24T03:17:19.134Z,989.99
2022-10-24T03:18:19.043Z,990.01
2022-10-24T03:19:19.042Z,990.02
2022-10-24T03:20:19.029Z,990.02
2022-10-24T03:21:18.998Z,990.00
2022-10-24T03:22:18.996Z,990.08
2022-10-24T03:23:18.987Z,990.06
2022-10-24T03:24:26.837Z,990.10
2022-10-24T03:25:19.972Z,990.06
2022-10-24T03:26:18.965Z,990.07
2022-10-24T03:27:18.954Z,990.09
2022-10-24T03:28:18.935Z,990.14
2022-10-24T03:29:18.916Z,990.18
2022-10-24T03:30:18.897Z,990.14
2022-10-24T03:31:18.900Z,990.18
2022-10-24T03:32:18.978Z,990.18
2022-10-24T03:33:18.881Z,990.19
2022-10-24T03:34:18.890Z,990.20
2022-10-24T03:35:18.864Z,990.21
2022-10-24T03:36:18.835Z,990.22
2022-10-24T03:37:18.836Z,990.18
2022-10-24T03:38:18.877Z,990.18
2022-10-24T03:39:18.824Z,990.20
2022-10-24T03:40:18.807Z,990.26
2022-10-24T03:41:18.786Z,990.33
2022-10-24T03:42:18.786Z,990.32
2022-10-24T03:43:18.782Z,990.31
2022-10-24T03:44:18.739Z,990.28
2022-10-24T03:45:18.741Z,990.29
2022-10-24T03:46:18.749Z,990.22
2022-10-24T03:47:18.744Z,990.24
2022-10-24T03:48:18.768Z,990.23
2022-10-24T03:49:18.699Z,990.23
2022-10-24T03:50:18.670Z,990.22
2022-10-24T03:51:18.677Z,990.22
2022-10-24T03:52:18.661Z,990.25
2022-10-24T03:53:18.657Z,990.18
2022-10-24T03:54:18.651Z,990.21
2022-10-24T03:55:18.640Z,990.20
2022-10-24T03:56:18.612Z,990.22
2022-10-24T03:57:18.757Z,990.20
2022-10-24T03:58:18.604Z,990.29
2022-10-24T03:59:18.610Z,990.25
2022-10-24T04:00:18.748Z,990.25
2022-10-24T04:01:18.696Z,990.25
2022-10-24T04:02:18.734Z,990.24
2022-10-24T04:03:18.527Z,990.21
2022-10-24T04:04:18.530Z,990.23
2022-10-24T04:05:18.567Z,990.19
2022-10-24T04:06:18.824Z,990.18
2022-10-24T04:07:18.543Z,990.22
2022-10-24T04:08:18.522Z,990.21
2022-10-24T04:09:18.472Z,990.18
2022-10-24T04:10:18.453Z,990.17
2022-10-24T04:11:18.472Z,990.14
2022-10-24T04:12:18.475Z,990.15
2022-10-24T04:13:18.430Z,990.14
2022-10-24T04:14:18.404Z,990.23
2022-10-24T04:15:18.416Z,990.24
2022-10-24T04:16:18.450Z,990.26
2022-10-24T04:17:18.353Z,990.26
2022-10-24T04:18:18.364Z,990.26
2022-10-24T04:19:18.352Z,990.26
2022-10-24T04:20:18.396Z,990.38
2022-10-24T04:21:21.560Z,990.35
2022-10-24T04:22:18.373Z,990.32
2022-10-24T04:23:18.321Z,990.32
2022-10-24T04:24:18.309Z,990.26
2022-10-24T04:25:18.284Z,990.26
2022-10-24T04:26:18.307Z,990.30
2022-10-24T04:27:18.260Z,990.31
2022-10-24T04:28:18.312Z,990.26
2022-10-24T04:29:18.236Z,990.26
2022-10-24T04:30:18.309Z,990.24
2022-10-24T04:31:21.024Z,990.25
2022-10-24T04:32:19.245Z,990.21
2022-10-24T04:33:18.196Z,990.19
2022-10-24T04:34:18.194Z,990.19
2022-10-24T04:35:18.166Z,990.18
2022-10-24T04:36:18.166Z,990.16
2022-10-24T04:37:18.187Z,990.12
2022-10-24T04:38:18.136Z,990.18
2022-10-24T04:39:18.183Z,990.21
2022-10-24T04:40:18.102Z,990.16
2022-10-24T04:41:18.096Z,990.18
2022-10-24T04:42:18.090Z,990.11
2022-10-24T04:43:18.086Z,990.17
2022-10-24T04:44:18.120Z,990.22
2022-10-24T04:45:18.061Z,990.20
2022-10-24T04:46:18.045Z,990.26
2022-10-24T04:47:18.044Z,990.19
2022-10-24T04:48:18.015Z,990.18
2022-10-24T04:49:18.065Z,990.18
2022-10-24T04:50:18.015Z,990.11
2022-10-24T04:51:21.578Z,990.15
2022-10-24T04:52:17.967Z,990.16
2022-10-24T04:53:17.974Z,990.20
2022-10-24T04:54:18.005Z,990.18
2022-10-24T04:55:17.938Z,990.11
2022-10-24T04:56:17.930Z,990.21
2022-10-24T04:57:17.929Z,990.19
2022-10-24T04:58:18.008Z,990.23
2022-10-24T04:59:17.971Z,990.26
2022-10-24T05:00:17.892Z,990.30
2022-10-24T05:01:17.928Z,990.26
2022-10-24T05:02:17.916Z,990.26
2022-10-24T05:03:17.909Z,990.27
2022-10-24T05:04:17.843Z,990.25
2022-10-24T05:05:18.037Z,990.22
2022-10-24T05:06:17.825Z,990.30
2022-10-24T05:07:17.818Z,990.26
2022-10-24T05:08:17.855Z,990.27
2022-10-24T05:09:17.779Z,990.25
2022-10-24T05:10:17.770Z,990.25
2022-10-24T05:11:17.752Z,990.28
2022-10-24T05:13:17.803Z,990.30
2022-10-24T05:14:17.734Z,990.26
2022-10-24T05:15:17.777Z,990.28
2022-10-24T05:16:17.709Z,990.25
2022-10-24T05:17:17.735Z,990.27
2022-10-24T05:18:17.770Z,990.25
2022-10-24T05:19:17.798Z,990.25
2022-10-24T05:20:17.658Z,990.20
2022-10-24T05:21:17.641Z,990.15
2022-10-24T05:22:17.724Z,990.15
2022-10-24T05:23:17.637Z,990.16
2022-10-24T05:24:17.607Z,990.15
2022-10-24T05:25:17.620Z,990.23
2022-10-24T05:26:17.586Z,990.27
2022-10-24T05:27:17.581Z,990.23
2022-10-24T05:28:17.635Z,990.21
2022-10-24T05:29:17.546Z,990.18
2022-10-24T05:30:17.545Z,990.19
2022-10-24T05:31:17.585Z,990.17
2022-10-24T05:32:17.565Z,990.19
2022-10-24T05:33:17.502Z,990.23
2022-10-24T05:34:17.514Z,990.21
2022-10-24T05:35:17.512Z,990.22
2022-10-24T05:36:17.471Z,990.22
2022-10-24T05:37:17.615Z,990.16
2022-10-24T05:38:17.455Z,990.14
2022-10-24T05:39:17.442Z,990.08
2022-10-24T05:40:17.450Z,990.08
2022-10-24T05:41:17.472Z,990.07
2022-10-24T05:42:17.417Z,990.04
2022-10-24T05:43:17.445Z,990.02
2022-10-24T05:44:17.398Z,990.01
2022-10-24T05:45:17.369Z,990.02
2022-10-24T05:46:17.412Z,990.00
2022-10-24T05:47:17.346Z,990.02
2022-10-24T05:48:17.381Z,990.05
2022-10-24T05:49:17.327Z,990.02
2022-10-24T05:50:17.305Z,990.09
2022-10-24T05:51:17.322Z,990.08
2022-10-24T05:52:17.362Z,990.03
2022-10-24T05:53:17.282Z,990.05
2022-10-24T05:54:17.288Z,990.06
2022-10-24T05:55:18.482Z,990.02
2022-10-24T05:56:17.253Z,990.04
2022-10-24T05:57:17.305Z,990.00
2022-10-24T05:58:17.231Z,990.03
2022-10-24T05:59:17.206Z,990.01
2022-10-24T06:00:17.205Z,990.02
2022-10-24T06:01:17.285Z,990.03
2022-10-24T06:02:17.267Z,990.05
2022-10-24T06:03:17.173Z,990.05
2022-10-24T06:04:17.150Z,990.13
2022-10-24T06:05:17.142Z,990.13
2022-10-24T06:06:17.135Z,990.15
2022-10-24T06:07:17.193Z,990.18
2022-10-24T06:08:17.108Z,990.18
2022-10-24T06:09:17.160Z,990.17
2022-10-24T06:10:17.086Z,990.14
2022-10-24T06:11:17.107Z,990.20
2022-10-24T06:12:17.044Z,990.19
2022-10-24T06:13:17.134Z,990.22
2022-10-24T06:14:17.018Z,990.28
2022-10-24T06:15:17.028Z,990.27
2022-10-24T06:16:16.999Z,990.25
2022-10-24T06:17:16.984Z,990.26
2022-10-24T06:18:16.998Z,990.25
2022-10-24T06:19:16.962Z,990.22
2022-10-24T06:20:16.976Z,990.23
2022-10-24T06:21:16.942Z,990.28
2022-10-24T06:22:16.925Z,990.21
2022-10-24T06:23:16.932Z,990.14
2022-10-24T06:24:16.907Z,990.13
2022-10-24T06:25:16.914Z,990.15
2022-10-24T06:26:20.362Z,990.17
2022-10-24T06:27:17.867Z,990.12
2022-10-24T06:28:16.867Z,990.14
2022-10-24T06:29:16.845Z,990.17
2022-10-24T06:30:16.886Z,990.15
2022-10-24T06:31:16.824Z,990.16
2022-10-24T06:32:16.812Z,990.17
2022-10-24T06:33:16.810Z,990.21
2022-10-24T06:34:16.904Z,990.21
2022-10-24T06:35:16.809Z,990.19
2022-10-24T06:36:16.787Z,990.11
2022-10-24T06:37:16.757Z,990.16
2022-10-24T06:38:16.801Z,990.12
2022-10-24T06:39:16.894Z,990.09
2022-10-24T06:40:16.723Z,990.08
2022-10-24T06:41:16.708Z,990.11
2022-10-24T06:42:16.698Z,990.09
2022-10-24T06:43:16.713Z,990.14
2022-10-24T06:44:16.677Z,990.16
2022-10-24T06:45:16.665Z,990.20
2022-10-24T06:46:16.653Z,990.14
2022-10-24T06:47:16.702Z,990.14
2022-10-24T06:48:16.660Z,990.14
2022-10-24T06:49:16.621Z,990.15
2022-10-24T06:50:16.618Z,990.16
2022-10-24T06:51:16.613Z,990.16
2022-10-24T06:52:16.647Z,990.18
2022-10-24T06:53:16.624Z,990.20
2022-10-24T06:54:16.579Z,990.18
2022-10-24T06:55:16.567Z,990.21
2022-10-24T06:56:16.569Z,990.20
2022-10-24T06:57:16.532Z,990.24
2022-10-24T06:58:16.520Z,990.20
2022-10-24T06:59:16.507Z,990.24
2022-10-24T07:00:16.620Z,990.20
2022-10-24T07:01:16.658Z,990.22
2022-10-24T07:02:16.692Z,990.28
2022-10-24T07:03:16.463Z,990.29
2022-10-24T07:04:16.454Z,990.31
2022-10-24T07:05:16.462Z,990.34
2022-10-24T07:06:16.492Z,990.35
2022-10-24T07:07:16.438Z,990.36
2022-10-24T07:08:16.408Z,990.40
2022-10-24T07:09:16.404Z,990.42
2022-10-24T07:10:16.383Z,990.45
2022-10-24T07:11:16.388Z,990.48
2022-10-24T07:12:16.423Z,990.49
2022-10-24T07:13:16.350Z,990.49
2022-10-24T07:14:16.345Z,990.51
2022-10-24T07:15:16.408Z,990.42
2022-10-24T07:16:16.317Z,990.44
2022-10-24T07:17:16.322Z,990.43
2022-10-24T07:18:16.291Z,990.40
2022-10-24T07:19:16.280Z,990.38
2022-10-24T07:20:16.428Z,990.37
2022-10-24T07:21:16.258Z,990.40
2022-10-24T07:22:16.303Z,990.41
2022-10-24T07:23:16.421Z,990.40
2022-10-24T07:24:16.226Z,990.36
2022-10-24T07:25:16.216Z,990.42
2022-10-24T07:26:16.205Z,990.33
2022-10-24T07:27:16.204Z,990.36
2022-10-24T07:28:16.209Z,990.38
2022-10-24T07:29:16.197Z,990.34
2022-10-24T07:30:16.158Z,990.36
2022-10-24T07:31:16.146Z,990.38
2022-10-24T07:32:16.134Z,990.40
2022-10-24T07:33:16.124Z,990.42
2022-10-24T07:34:16.134Z,990.45
2022-10-24T07:35:16.098Z,990.48
2022-10-24T07:36:16.092Z,990.50
2022-10-24T07:37:16.138Z,990.45
2022-10-24T07:38:17.925Z,990.50
2022-10-24T07:39:16.066Z,990.51
2022-10-24T07:40:16.049Z,990.46
2022-10-24T07:41:16.037Z,990.43
2022-10-24T07:42:16.067Z,990.50
2022-10-24T07:43:16.028Z,990.49
2022-10-24T07:44:15.998Z,990.47
2022-10-24T07:45:15.989Z,990.47
2022-10-24T07:46:15.975Z,990.45
2022-10-24T07:47:15.962Z,990.43
2022-10-24T07:48:15.998Z,990.41
2022-10-24T07:49:15.963Z,990.44
2022-10-24T07:50:15.931Z,990.44
2022-10-24T07:51:15.915Z,990.46
2022-10-24T07:52:15.906Z,990.48
2022-10-24T07:53:15.902Z,990.39
2022-10-24T07:54:15.936Z,990.40
2022-10-24T07:55:15.897Z,990.36
2022-10-24T07:56:15.871Z,990.37
2022-10-24T07:57:15.850Z,990.37
2022-10-24T07:58:15.870Z,990.37
2022-10-24T07:59:37.269Z,990.37
2022-10-24T08:00:16.818Z,990.40
2022-10-24T08:01:15.881Z,990.39
2022-10-24T08:02:15.792Z,990.39
2022-10-24T08:03:15.780Z,990.34
2022-10-24T08:04:15.806Z,990.33
2022-10-24T08:05:18.133Z,990.27
2022-10-24T08:06:16.747Z,990.26
2022-10-24T08:07:15.741Z,990.22
2022-10-24T08:09:16.736Z,990.27
2022-10-24T08:10:15.701Z,990.22
2022-10-24T08:11:15.690Z,990.23
2022-10-24T08:12:15.685Z,990.30
2022-10-24T08:13:15.665Z,990.31
2022-10-24T08:14:15.678Z,990.19
2022-10-24T08:15:15.661Z,990.24
2022-10-24T08:16:15.635Z,990.24
2022-10-24T08:17:15.621Z,990.23
2022-10-24T08:18:15.613Z,990.26
2022-10-24T08:19:15.690Z,990.22
2022-10-24T08:20:15.590Z,990.21
2022-10-24T08:21:15.574Z,990.22
2022-10-24T08:22:15.568Z,990.27
2022-10-24T08:23:15.555Z,990.24
2022-10-24T08:24:15.566Z,990.26
2022-10-24T08:25:15.528Z,990.25
2022-10-24T08:26:15.518Z,990.19
2022-10-24T08:27:15.514Z,990.18
2022-10-24T08:28:15.498Z,990.20
2022-10-24T08:29:15.509Z,990.18
2022-10-24T08:30:15.474Z,990.16
2022-10-24T08:31:15.593Z,990.13
2022-10-24T08:32:15.453Z,990.11
2022-10-24T08:33:18.710Z,990.12
2022-10-24T08:34:15.454Z,990.11
2022-10-24T08:35:15.757Z,990.11
2022-10-24T08:36:15.406Z,990.08
2022-10-24T08:37:15.392Z,990.01
2022-10-24T08:38:15.389Z,990.01
2022-10-24T08:39:15.372Z,990.01
2022-10-24T08:40:15.371Z,989.99
2022-10-24T08:41:15.371Z,990.00
2022-10-24T08:42:15.340Z,989.96
2022-10-24T08:43:15.324Z,989.94
2022-10-24T08:44:15.318Z,990.01
2022-10-24T08:45:15.354Z,989.98
2022-10-24T08:46:15.290Z,989.99
2022-10-24T08:47:15.298Z,989.99
2022-10-24T08:48:15.268Z,989.93
2022-10-24T08:49:15.363Z,990.00
2022-10-24T08:50:15.247Z,989.99
2022-10-24T08:51:15.239Z,989.96
2022-10-24T08:52:15.222Z,989.93
2022-10-24T08:53:15.214Z,989.88
2022-10-24T08:54:15.384Z,989.92
2022-10-24T08:56:16.181Z,989.95
2022-10-24T08:57:15.168Z,989.95
2022-10-24T08:58:15.155Z,989.97
2022-10-24T08:59:15.350Z,989.94
2022-10-24T09:00:15.135Z,990.04
2022-10-24T09:01:15.233Z,989.98
2022-10-24T09:02:15.212Z,989.91
2022-10-24T09:03:17.656Z,989.93
2022-10-24T09:04:15.111Z,989.89
2022-10-24T09:05:15.184Z,989.92
2022-10-24T09:06:15.126Z,989.83
2022-10-24T09:07:15.114Z,989.83
2022-10-24T09:08:15.050Z,989.89
2022-10-24T09:09:15.043Z,989.90
2022-10-24T09:10:15.042Z,989.95
2022-10-24T09:11:15.008Z,989.96
2022-10-24T09:12:15.001Z,989.98
2022-10-24T09:13:14.992Z,990.04
2022-10-24T09:14:14.986Z,990.07
2022-10-24T09:15:14.990Z,990.04
2022-10-24T09:16:14.986Z,990.08
2022-10-24T09:17:14.986Z,990.09
2022-10-24T09:18:14.929Z,990.05
2022-10-24T09:19:14.938Z,990.02
2022-10-24T09:20:14.910Z,990.07
2022-10-24T09:21:14.940Z,990.08
2022-10-24T09:22:14.951Z,990.11
2022-10-24T09:23:14.874Z,990.07
2022-10-24T09:24:14.862Z,990.16
2022-10-24T09:25:14.880Z,990.04
2022-10-24T09:26:14.839Z,990.03
2022-10-24T09:27:14.849Z,990.02
2022-10-24T09:28:14.819Z,990.02
2022-10-24T09:29:14.808Z,990.02
2022-10-24T09:30:14.820Z,990.02
2022-10-24T09:31:14.786Z,990.03
2022-10-24T09:32:14.797Z,989.98
2022-10-24T09:33:14.765Z,990.03
2022-10-24T09:34:14.750Z,989.97
2022-10-24T09:35:14.767Z,990.04
2022-10-24T09:36:14.726Z,989.97
2022-10-24T09:37:14.772Z,989.97
2022-10-24T09:38:14.705Z,990.00
2022-10-24T09:39:14.699Z,990.03
2022-10-24T09:40:14.683Z,990.05
2022-10-24T09:41:14.697Z,990.04
2022-10-24T09:42:14.665Z,990.09
2022-10-24T09:43:14.649Z,990.05
2022-10-24T09:44:14.664Z,990.04
2022-10-24T09:45:14.626Z,990.03
2022-10-24T09:46:14.638Z,990.09
2022-10-24T09:47:14.654Z,990.08
2022-10-24T09:48:14.617Z,990.17
2022-10-24T09:49:14.583Z,990.12
2022-10-24T09:50:14.572Z,990.14
2022-10-24T09:51:14.577Z,990.22
2022-10-24T09:52:14.551Z,990.23
2022-10-24T09:53:14.559Z,990.20
2022-10-24T09:54:14.523Z,990.13
2022-10-24T09:55:14.515Z,990.20
2022-10-24T09:56:14.504Z,990.17
2022-10-24T09:58:14.479Z,990.22
2022-10-24T09:59:14.467Z,990.26
2022-10-24T10:00:14.460Z,990.23
2022-10-24T10:01:14.655Z,990.24
2022-10-24T10:02:14.543Z,990.19
2022-10-24T10:03:14.433Z,990.17
2022-10-24T10:04:17.171Z,990.17
2022-10-24T10:05:14.400Z,990.17
2022-10-24T10:06:14.412Z,990.12
2022-10-24T10:07:14.403Z,990.15
2022-10-24T10:08:14.363Z,990.15
2022-10-24T10:09:14.357Z,990.17
2022-10-24T10:10:14.341Z,990.23
2022-10-24T10:11:14.359Z,990.22
2022-10-24T10:12:14.320Z,990.21
2022-10-24T10:13:14.311Z,990.22
2022-10-24T10:14:14.296Z,990.20
2022-10-24T10:15:14.287Z,990.20
2022-10-24T10:16:16.008Z,990.12
2022-10-24T10:17:14.269Z,990.09
2022-10-24T10:18:14.255Z,990.11
2022-10-24T10:19:14.254Z,990.06
2022-10-24T10:20:16.066Z,989.99
2022-10-24T10:21:14.222Z,990.06
2022-10-24T10:22:14.209Z,990.08
2022-10-24T10:23:14.242Z,990.12
2022-10-24T10:24:14.184Z,990.07
2022-10-24T10:26:14.162Z,990.06
2022-10-24T10:27:14.155Z,990.09
2022-10-24T10:28:14.164Z,990.11
2022-10-24T10:29:14.132Z,990.11
2022-10-24T10:30:14.134Z,990.14
2022-10-24T10:31:14.110Z,990.08
2022-10-24T10:32:14.094Z,990.13
2022-10-24T10:33:14.086Z,990.08
2022-10-24T10:34:16.183Z,990.18
2022-10-24T10:35:15.062Z,990.17
2022-10-24T10:36:14.054Z,990.11
2022-10-24T10:37:14.064Z,990.09
2022-10-24T10:38:14.027Z,990.06
2022-10-24T10:39:14.035Z,990.13
2022-10-24T10:40:14.036Z,990.20
2022-10-24T10:41:13.995Z,990.16
2022-10-24T10:42:14.021Z,990.18
2022-10-24T10:43:13.972Z,990.14
2022-10-24T10:44:13.964Z,990.07
2022-10-24T10:45:13.957Z,990.05
2022-10-24T10:46:13.960Z,990.13
2022-10-24T10:47:13.954Z,990.10
2022-10-24T10:48:13.914Z,990.11
2022-10-24T10:49:13.903Z,990.15
2022-10-24T10:50:13.955Z,990.12
2022-10-24T10:51:13.902Z,990.11
2022-10-24T10:52:13.873Z,990.16
2022-10-24T10:53:13.857Z,990.08
2022-10-24T10:54:13.844Z,990.19
2022-10-24T10:55:13.910Z,990.17
2022-10-24T10:56:13.849Z,990.15
2022-10-24T10:57:13.819Z,990.09
2022-10-24T10:58:13.803Z,990.00
2022-10-24T10:59:13.791Z,990.02
2022-10-24T11:00:13.810Z,990.09
2022-10-24T11:01:13.960Z,990.08
2022-10-24T11:02:13.964Z,990.09
2022-10-24T11:03:13.744Z,990.13
2022-10-24T11:04:13.731Z,990.11
2022-10-24T11:05:13.726Z,990.12
2022-10-24T11:06:13.732Z,990.15
2022-10-24T11:07:13.728Z,990.07
2022-10-24T11:08:15.936Z,990.23
2022-10-24T11:09:14.679Z,990.24
2022-10-24T11:10:13.760Z,990.15
2022-10-24T11:11:13.675Z,990.16
2022-10-24T11:12:13.663Z,990.10
2022-10-24T11:13:13.654Z,990.17
2022-10-24T11:14:13.619Z,990.22
2022-10-24T11:15:13.643Z,990.29
2022-10-24T11:16:13.637Z,990.20
2022-10-24T11:17:13.587Z,990.27
2022-10-24T11:18:13.578Z,990.36
2022-10-24T11:19:13.566Z,990.28
2022-10-24T11:20:13.694Z,990.22
2022-10-24T11:21:13.542Z,990.28
2022-10-24T11:22:13.556Z,990.39
2022-10-24T11:23:13.555Z,990.29
2022-10-24T11:24:13.951Z,990.46
2022-10-24T11:25:13.501Z,990.47
2022-10-24T11:26:13.507Z,990.49
2022-10-24T11:27:13.494Z,990.44
2022-10-24T11:28:13.468Z,990.39
2022-10-24T11:29:13.477Z,990.41
2022-10-24T11:30:13.441Z,990.41
2022-10-24T11:31:13.432Z,990.36
2022-10-24T11:32:13.423Z,990.36
2022-10-24T11:33:13.431Z,990.36
2022-10-24T11:34:13.395Z,990.42
2022-10-24T11:35:13.385Z,990.35
2022-10-24T11:36:13.372Z,990.44
2022-10-24T11:37:13.362Z,990.37
2022-10-24T11:38:13.381Z,990.44
2022-10-24T11:39:13.353Z,990.38
2022-10-24T11:40:13.371Z,990.45
2022-10-24T11:41:13.319Z,990.44
2022-10-24T11:42:13.305Z,990.48
2022-10-24T11:43:13.311Z,990.54
2022-10-24T11:44:13.304Z,990.52
2022-10-24T11:45:13.276Z,990.54
2022-10-24T11:46:13.261Z,990.67
2022-10-24T11:47:13.277Z,990.61
2022-10-24T11:48:13.261Z,990.50
2022-10-24T11:49:13.231Z,990.66
2022-10-24T11:50:13.218Z,990.52
2022-10-24T11:51:13.206Z,990.48
2022-10-24T11:52:13.194Z,990.48
2022-10-24T11:53:13.210Z,990.63
2022-10-24T11:54:13.170Z,990.51
2022-10-24T11:55:13.186Z,990.62
2022-10-24T11:56:13.152Z,990.57
2022-10-24T11:58:13.149Z,990.69
2022-10-24T11:59:13.137Z,990.68
2022-10-24T12:00:13.130Z,990.56
2022-10-24T12:01:13.151Z,990.66
2022-10-24T12:02:13.137Z,990.64
2022-10-24T12:03:13.071Z,990.60
2022-10-24T12:04:13.083Z,990.53
2022-10-24T12:05:17.976Z,990.62
2022-10-24T12:06:14.037Z,990.62
2022-10-24T12:07:13.026Z,990.57
2022-10-24T12:08:13.015Z,990.64
2022-10-24T12:09:13.031Z,990.57
2022-10-24T12:10:13.017Z,990.71
2022-10-24T12:11:12.990Z,990.60
2022-10-24T12:12:12.995Z,990.65
2022-10-24T12:13:12.960Z,990.67
2022-10-24T12:14:12.955Z,990.56
2022-10-24T12:15:12.958Z,990.71
2022-10-24T12:16:12.925Z,990.72
2022-10-24T12:17:12.942Z,990.72
2022-10-24T12:18:12.906Z,990.66
2022-10-24T12:19:12.908Z,990.74
2022-10-24T12:20:12.896Z,990.73
2022-10-24T12:21:12.890Z,990.66
2022-10-24T12:22:12.950Z,990.64
2022-10-24T12:23:12.848Z,990.60
2022-10-24T12:24:12.835Z,990.55
2022-10-24T12:25:12.827Z,990.70
2022-10-24T12:26:12.823Z,990.71
2022-10-24T12:27:12.840Z,990.60
2022-10-24T12:28:12.792Z,990.73
2022-10-24T12:29:12.783Z,990.61
2022-10-24T12:30:12.767Z,990.57
2022-10-24T12:31:12.776Z,990.64
2022-10-24T12:32:12.770Z,990.71
2022-10-24T12:33:12.736Z,990.69
2022-10-24T12:34:12.723Z,990.64
2022-10-24T12:35:29.399Z,990.61